createdAt,value
2019-02-14T00:00:07.896Z,10.63
2019-02-14T00:01:13.655Z,10.28
2019-02-14T00:02:20.565Z,10.53
2019-02-14T00:03:25.830Z,10.36
2019-02-14T00:04:31.102Z,10.36
2019-02-14T00:05:36.402Z,9.90
2019-02-14T00:06:41.374Z,10.22
2019-02-14T00:07:46.104Z,10.17
2019-02-14T00:08:51.331Z,10.19
2019-02-14T00:09:56.044Z,10.28
2019-02-14T00:11:01.320Z,10.07
2019-02-14T00:12:06.584Z,10.43
2019-02-14T00:13:12.120Z,10.47
2019-02-14T00:14:17.405Z,10.55
2019-02-14T00:15:22.116Z,10.52
2019-02-14T00:16:27.086Z,10.23
2019-02-14T00:17:32.013Z,10.16
2019-02-14T00:18:37.290Z,10.20
2019-02-14T00:19:42.266Z,10.32
2019-02-14T00:20:47.640Z,10.21
2019-02-14T00:21:52.598Z,10.28
2019-02-14T00:22:57.599Z,10.03
2019-02-14T00:24:02.901Z,10.26
2019-02-14T00:25:07.511Z,10.07
2019-02-14T00:26:12.814Z,10.08
2019-02-14T00:27:17.856Z,10.15
2019-02-14T00:28:22.876Z,10.21
2019-02-14T00:29:28.092Z,10.10
2019-02-14T00:30:33.069Z,10.27
2019-02-14T00:31:38.458Z,10.31
2019-02-14T00:32:44.059Z,9.86
2019-02-14T00:33:49.362Z,9.87
2019-02-14T00:34:54.649Z,10.00
2019-02-14T00:36:00.197Z,10.00
2019-02-14T00:37:05.183Z,9.86
2019-02-14T00:38:10.806Z,9.80
2019-02-14T00:39:16.084Z,9.54
2019-02-14T00:40:21.623Z,9.89
2019-02-14T00:41:26.677Z,9.81
2019-02-14T00:42:32.036Z,9.79
2019-02-14T00:43:36.995Z,9.96
2019-02-14T00:44:42.261Z,10.09
2019-02-14T00:45:47.308Z,10.11
2019-02-14T00:46:52.565Z,10.38
2019-02-14T00:47:57.592Z,9.94
2019-02-14T00:49:02.806Z,9.99
2019-02-14T00:50:07.871Z,9.97
2019-02-14T00:51:12.660Z,10.01
2019-02-14T00:52:17.651Z,10.06
2019-02-14T00:53:22.600Z,9.77
2019-02-14T00:54:27.593Z,9.55
2019-02-14T00:55:32.395Z,9.88
2019-02-14T00:56:37.670Z,9.83
2019-02-14T00:57:42.621Z,9.96
2019-02-14T00:58:48.226Z,10.14
2019-02-14T00:59:53.791Z,10.05
2019-02-14T01:00:59.079Z,10.43
2019-02-14T01:02:04.080Z,10.24
2019-02-14T01:03:08.824Z,10.31
2019-02-14T01:04:14.108Z,10.25
2019-02-14T01:05:19.374Z,10.22
2019-02-14T01:06:24.616Z,9.92
2019-02-14T01:07:29.571Z,10.15
2019-02-14T01:08:34.551Z,10.06
2019-02-14T01:09:40.110Z,10.01
2019-02-14T01:10:45.390Z,9.97
2019-02-14T01:11:50.651Z,10.31
2019-02-14T01:12:55.758Z,10.26
2019-02-14T01:14:00.955Z,10.11
2019-02-14T01:15:07.154Z,10.14
2019-02-14T01:16:12.168Z,10.15
2019-02-14T01:17:17.415Z,9.95
2019-02-14T01:18:22.747Z,10.11
2019-02-14T01:19:28.082Z,10.07
2019-02-14T01:20:33.096Z,10.18
2019-02-14T01:21:38.325Z,10.21
2019-02-14T01:22:43.896Z,10.31
2019-02-14T01:23:48.640Z,9.91
2019-02-14T01:24:53.890Z,10.28
2019-02-14T01:25:59.160Z,10.34
2019-02-14T01:27:04.081Z,10.18
2019-02-14T01:28:08.756Z,9.66
2019-02-14T01:29:14.029Z,9.32
2019-02-14T01:30:18.731Z,9.17
2019-02-14T01:31:23.975Z,9.89
2019-02-14T01:32:28.960Z,9.54
2019-02-14T01:33:33.669Z,9.94
2019-02-14T01:34:39.224Z,10.08
2019-02-14T01:35:44.345Z,10.04
2019-02-14T01:36:49.503Z,10.24
2019-02-14T01:37:54.278Z,10.23
2019-02-14T01:38:59.443Z,10.29
2019-02-14T01:40:04.670Z,10.02
2019-02-14T01:41:09.642Z,10.16
2019-02-14T01:42:14.950Z,9.87
2019-02-14T01:43:19.932Z,10.07
2019-02-14T01:44:25.467Z,10.00
2019-02-14T01:45:30.945Z,9.96
2019-02-14T01:46:36.208Z,9.85
2019-02-14T01:47:41.738Z,10.02
2019-02-14T01:48:47.193Z,10.16
2019-02-14T01:49:52.436Z,9.96
2019-02-14T01:50:57.678Z,10.08
2019-02-14T01:52:02.960Z,9.95
2019-02-14T01:53:07.655Z,9.96
2019-02-14T01:54:12.358Z,9.83
2019-02-14T01:55:17.335Z,9.74
2019-02-14T01:56:22.355Z,9.76
2019-02-14T01:57:27.330Z,9.52
2019-02-14T01:58:32.728Z,9.71
2019-02-14T01:59:37.701Z,9.87
2019-02-14T02:00:42.385Z,9.79
2019-02-14T02:01:47.972Z,9.98
2019-02-14T02:02:53.067Z,9.97
2019-02-14T02:03:58.336Z,10.06
2019-02-14T02:05:03.304Z,9.46
2019-02-14T02:06:08.059Z,9.88
2019-02-14T02:07:13.303Z,10.10
2019-02-14T02:08:18.743Z,9.93
2019-02-14T02:09:23.731Z,9.76
2019-02-14T02:10:28.685Z,9.73
2019-02-14T02:11:34.058Z,9.99
2019-02-14T02:12:38.502Z,9.69
2019-02-14T02:13:43.786Z,9.71
2019-02-14T02:14:49.079Z,9.82
2019-02-14T02:15:54.123Z,9.98
2019-02-14T02:16:59.355Z,9.71
2019-02-14T02:18:04.593Z,9.81
2019-02-14T02:19:09.311Z,9.81
2019-02-14T02:20:14.103Z,9.75
2019-02-14T02:21:19.070Z,9.71
2019-02-14T02:22:24.179Z,9.28
2019-02-14T02:23:29.180Z,9.39
2019-02-14T02:24:34.160Z,9.38
2019-02-14T02:25:39.816Z,9.40
2019-02-14T02:26:46.326Z,9.44
2019-02-14T02:27:50.930Z,9.42
2019-02-14T02:28:55.914Z,9.52
2019-02-14T02:30:00.907Z,9.65
2019-02-14T02:31:05.349Z,9.60
2019-02-14T02:32:10.591Z,9.68
2019-02-14T02:33:15.087Z,9.77
2019-02-14T02:34:19.862Z,9.61
2019-02-14T02:35:24.603Z,9.76
2019-02-14T02:36:30.149Z,9.88
2019-02-14T02:37:35.118Z,9.53
2019-02-14T02:38:40.342Z,9.52
2019-02-14T02:39:45.620Z,9.55
2019-02-14T02:40:50.608Z,9.52
2019-02-14T02:41:55.552Z,9.53
2019-02-14T02:43:01.089Z,9.40
2019-02-14T02:44:06.640Z,9.52
2019-02-14T02:45:12.803Z,9.27
2019-02-14T02:46:17.941Z,9.26
2019-02-14T02:47:22.937Z,9.42
2019-02-14T02:48:27.966Z,9.43
2019-02-14T02:49:33.232Z,9.49
2019-02-14T02:50:38.213Z,8.97
2019-02-14T02:51:42.903Z,9.38
2019-02-14T02:52:48.498Z,9.29
2019-02-14T02:53:53.442Z,9.41
2019-02-14T02:54:59.017Z,9.42
2019-02-14T02:56:04.046Z,9.54
2019-02-14T02:57:09.331Z,9.00
2019-02-14T02:58:14.060Z,9.26
2019-02-14T02:59:18.505Z,9.34
2019-02-14T03:00:23.761Z,9.37
2019-02-14T03:01:28.749Z,9.22
2019-02-14T03:02:34.011Z,9.29
2019-02-14T03:03:38.974Z,9.23
2019-02-14T03:04:44.552Z,9.36
2019-02-14T03:05:49.427Z,8.80
2019-02-14T03:06:53.870Z,8.71
2019-02-14T03:07:59.117Z,9.00
2019-02-14T03:09:05.517Z,8.78
2019-02-14T03:10:10.600Z,8.78
2019-02-14T03:11:15.858Z,8.71
2019-02-14T03:12:21.097Z,8.86
2019-02-14T03:13:26.355Z,8.72
2019-02-14T03:14:31.644Z,8.61
2019-02-14T03:15:36.615Z,8.46
2019-02-14T03:16:41.569Z,8.44
2019-02-14T03:17:46.548Z,8.36
2019-02-14T03:18:51.645Z,8.59
2019-02-14T03:19:57.528Z,8.73
2019-02-14T03:21:02.497Z,8.75
2019-02-14T03:22:07.510Z,8.87
2019-02-14T03:23:12.539Z,8.83
2019-02-14T03:24:17.568Z,8.87
2019-02-14T03:25:22.545Z,8.62
2019-02-14T03:26:27.828Z,8.52
2019-02-14T03:27:32.511Z,8.56
2019-02-14T03:28:37.495Z,8.52
2019-02-14T03:29:42.494Z,8.72
2019-02-14T03:30:47.012Z,8.78
2019-02-14T03:31:52.258Z,8.81
2019-02-14T03:32:57.561Z,8.67
2019-02-14T03:34:02.835Z,8.57
2019-02-14T03:35:08.008Z,8.71
2019-02-14T03:36:18.905Z,8.64
2019-02-14T03:37:20.534Z,8.63
2019-02-14T03:38:25.501Z,8.64
2019-02-14T03:39:30.774Z,8.40
2019-02-14T03:40:35.856Z,8.35
2019-02-14T03:41:41.117Z,8.38
2019-02-14T03:42:46.375Z,8.60
2019-02-14T03:43:51.363Z,8.59
2019-02-14T03:44:56.920Z,8.58
2019-02-14T03:46:01.913Z,8.38
2019-02-14T03:47:07.157Z,8.50
2019-02-14T03:48:12.118Z,8.51
2019-02-14T03:49:17.431Z,8.43
2019-02-14T03:50:22.946Z,8.64
2019-02-14T03:51:28.203Z,8.28
2019-02-14T03:52:33.698Z,8.08
2019-02-14T03:53:38.770Z,8.18
2019-02-14T03:54:43.766Z,8.22
2019-02-14T03:55:48.541Z,8.07
2019-02-14T03:56:54.065Z,8.11
2019-02-14T03:57:59.331Z,7.94
2019-02-14T03:59:04.433Z,8.33
2019-02-14T04:00:12.052Z,8.43
2019-02-14T04:01:17.322Z,8.30
2019-02-14T04:02:22.587Z,8.34
2019-02-14T04:03:27.550Z,8.21
2019-02-14T04:04:32.862Z,8.36
2019-02-14T04:05:38.440Z,8.21
2019-02-14T04:06:43.670Z,8.24
2019-02-14T04:07:48.990Z,8.12
2019-02-14T04:08:54.383Z,7.97
2019-02-14T04:09:59.635Z,8.03
2019-02-14T04:11:04.992Z,7.99
2019-02-14T04:12:09.979Z,8.03
2019-02-14T04:13:15.359Z,8.07
2019-02-14T04:14:20.655Z,8.17
2019-02-14T04:15:25.641Z,8.12
2019-02-14T04:16:30.906Z,8.17
2019-02-14T04:17:36.181Z,8.29
2019-02-14T04:18:41.138Z,8.27
2019-02-14T04:19:46.340Z,8.32
2019-02-14T04:20:51.813Z,7.80
2019-02-14T04:21:56.779Z,7.80
2019-02-14T04:23:02.012Z,8.04
2019-02-14T04:24:07.068Z,7.96
2019-02-14T04:25:12.059Z,8.03
2019-02-14T04:26:17.372Z,8.19
2019-02-14T04:27:22.642Z,7.97
2019-02-14T04:28:27.830Z,7.85
2019-02-14T04:29:33.083Z,8.03
2019-02-14T04:30:38.452Z,8.35
2019-02-14T04:31:43.130Z,8.24
2019-02-14T04:32:48.211Z,8.14
2019-02-14T04:33:53.802Z,8.12
2019-02-14T04:34:58.483Z,8.00
2019-02-14T04:36:03.549Z,7.88
2019-02-14T04:37:08.839Z,8.05
2019-02-14T04:38:14.100Z,7.96
2019-02-14T04:39:19.706Z,8.16
2019-02-14T04:40:33.255Z,8.03
2019-02-14T04:41:31.696Z,8.08
2019-02-14T04:42:37.292Z,7.86
2019-02-14T04:43:42.520Z,8.16
2019-02-14T04:44:48.071Z,7.91
2019-02-14T04:45:53.108Z,7.90
2019-02-14T04:46:57.814Z,7.67
2019-02-14T04:48:03.217Z,7.87
2019-02-14T04:49:08.430Z,7.90
2019-02-14T04:50:13.542Z,8.01
2019-02-14T04:51:18.852Z,8.13
2019-02-14T04:52:23.835Z,8.40
2019-02-14T04:53:29.110Z,8.34
2019-02-14T04:54:34.081Z,8.31
2019-02-14T04:55:39.358Z,8.26
2019-02-14T04:56:44.376Z,8.30
2019-02-14T04:57:49.713Z,8.36
2019-02-14T04:58:55.273Z,8.00
2019-02-14T05:00:00.849Z,8.04
2019-02-14T05:01:05.845Z,8.29
2019-02-14T05:02:11.122Z,8.23
2019-02-14T05:03:16.166Z,8.46
2019-02-14T05:04:21.389Z,8.15
2019-02-14T05:05:26.631Z,8.33
2019-02-14T05:06:31.330Z,7.80
2019-02-14T05:07:36.556Z,8.15
2019-02-14T05:08:41.327Z,8.13
2019-02-14T05:09:46.324Z,8.31
2019-02-14T05:10:51.299Z,8.34
2019-02-14T05:11:56.880Z,8.24
2019-02-14T05:13:02.191Z,8.40
2019-02-14T05:14:06.673Z,8.35
2019-02-14T05:15:11.673Z,8.39
2019-02-14T05:16:16.942Z,8.37
2019-02-14T05:17:21.948Z,7.88
2019-02-14T05:18:26.975Z,8.19
2019-02-14T05:19:32.245Z,8.33
2019-02-14T05:20:37.513Z,8.31
2019-02-14T05:21:42.794Z,8.15
2019-02-14T05:22:47.781Z,8.30
2019-02-14T05:23:53.377Z,8.23
2019-02-14T05:24:58.662Z,8.20
2019-02-14T05:26:03.409Z,8.28
2019-02-14T05:27:08.732Z,8.18
2019-02-14T05:28:13.745Z,7.96
2019-02-14T05:29:18.735Z,8.06
2019-02-14T05:30:23.699Z,8.13
2019-02-14T05:31:28.688Z,8.21
2019-02-14T05:32:33.942Z,8.16
2019-02-14T05:33:39.402Z,7.93
2019-02-14T05:34:44.663Z,7.95
2019-02-14T05:35:49.315Z,7.84
2019-02-14T05:36:55.364Z,7.79
2019-02-14T05:38:00.727Z,7.82
2019-02-14T05:39:06.053Z,7.83
2019-02-14T05:40:10.866Z,7.60
2019-02-14T05:41:16.405Z,7.68
2019-02-14T05:42:21.082Z,7.90
2019-02-14T05:43:26.007Z,8.02
2019-02-14T05:44:30.967Z,7.82
2019-02-14T05:45:36.210Z,7.93
2019-02-14T05:46:41.220Z,8.20
2019-02-14T05:47:46.462Z,8.28
2019-02-14T05:48:51.444Z,8.12
2019-02-14T05:49:56.152Z,8.26
2019-02-14T05:51:00.834Z,8.28
2019-02-14T05:52:06.100Z,8.08
2019-02-14T05:53:11.353Z,8.18
2019-02-14T05:54:16.625Z,8.30
2019-02-14T05:55:21.343Z,8.20
2019-02-14T05:56:26.597Z,8.09
2019-02-14T05:57:31.851Z,8.06
2019-02-14T05:58:36.842Z,8.04
2019-02-14T05:59:41.738Z,7.96
2019-02-14T06:00:47.083Z,8.17
2019-02-14T06:01:52.031Z,8.14
2019-02-14T06:02:57.268Z,7.81
2019-02-14T06:04:02.237Z,7.94
2019-02-14T06:05:07.388Z,8.23
2019-02-14T06:06:11.821Z,7.92
2019-02-14T06:07:17.366Z,8.22
2019-02-14T06:08:22.684Z,8.27
2019-02-14T06:09:27.451Z,8.17
2019-02-14T06:10:32.648Z,8.13
2019-02-14T06:11:37.595Z,8.15
2019-02-14T06:12:42.399Z,8.15
2019-02-14T06:13:49.671Z,8.26
2019-02-14T06:14:55.222Z,8.35
2019-02-14T06:16:00.537Z,8.28
2019-02-14T06:17:05.782Z,8.13
2019-02-14T06:18:10.744Z,8.15
2019-02-14T06:19:15.692Z,8.04
2019-02-14T06:20:20.659Z,8.02
2019-02-14T06:21:25.733Z,8.03
2019-02-14T06:22:30.726Z,8.03
2019-02-14T06:23:35.095Z,7.86
2019-02-14T06:24:39.592Z,8.09
2019-02-14T06:25:44.618Z,7.68
2019-02-14T06:26:50.153Z,7.65
2019-02-14T06:27:54.583Z,7.65
2019-02-14T06:28:59.714Z,7.78
2019-02-14T06:30:05.260Z,7.94
2019-02-14T06:31:09.927Z,7.97
2019-02-14T06:32:14.937Z,8.08
2019-02-14T06:33:20.194Z,7.92
2019-02-14T06:34:25.216Z,7.94
2019-02-14T06:35:30.793Z,7.91
2019-02-14T06:36:36.645Z,7.89
2019-02-14T06:37:41.811Z,8.00
2019-02-14T06:38:47.138Z,8.06
2019-02-14T06:39:51.844Z,7.95
2019-02-14T06:40:56.880Z,8.07
2019-02-14T06:42:02.129Z,8.34
2019-02-14T06:43:06.575Z,8.03
2019-02-14T06:44:11.254Z,8.07
2019-02-14T06:45:15.996Z,8.07
2019-02-14T06:46:20.969Z,7.98
2019-02-14T06:47:25.648Z,7.79
2019-02-14T06:48:31.203Z,7.90
2019-02-14T06:49:36.498Z,8.15
2019-02-14T06:50:41.728Z,8.14
2019-02-14T06:51:46.997Z,8.09
2019-02-14T06:52:51.998Z,7.87
2019-02-14T06:53:57.237Z,7.93
2019-02-14T06:55:02.506Z,8.00
2019-02-14T06:56:08.083Z,8.02
2019-02-14T06:57:12.950Z,7.97
2019-02-14T06:58:18.225Z,8.10
2019-02-14T06:59:23.488Z,8.17
2019-02-14T07:00:28.890Z,8.22
2019-02-14T07:01:35.531Z,8.01
2019-02-14T07:02:40.278Z,7.80
2019-02-14T07:03:45.205Z,8.25
2019-02-14T07:04:50.714Z,7.86
2019-02-14T07:05:55.735Z,8.26
2019-02-14T07:07:00.435Z,7.93
2019-02-14T07:08:05.821Z,8.17
2019-02-14T07:09:10.576Z,7.90
2019-02-14T07:10:15.875Z,7.83
2019-02-14T07:11:20.928Z,7.84
2019-02-14T07:12:26.391Z,8.16
2019-02-14T07:13:31.367Z,8.03
2019-02-14T07:14:36.436Z,8.24
2019-02-14T07:15:41.896Z,8.29
2019-02-14T07:16:46.596Z,8.03
2019-02-14T07:17:51.555Z,8.19
2019-02-14T07:18:56.578Z,8.25
2019-02-14T07:20:02.116Z,8.25
2019-02-14T07:21:07.120Z,8.32
2019-02-14T07:22:11.555Z,8.25
2019-02-14T07:23:16.181Z,8.27
2019-02-14T07:24:21.405Z,8.37
2019-02-14T07:25:26.147Z,8.34
2019-02-14T07:26:31.227Z,7.94
2019-02-14T07:27:36.446Z,7.94
2019-02-14T07:28:41.468Z,8.13
2019-02-14T07:29:49.241Z,8.23
2019-02-14T07:30:53.686Z,8.19
2019-02-14T07:31:58.965Z,8.32
2019-02-14T07:33:03.949Z,8.39
2019-02-14T07:34:09.219Z,8.43
2019-02-14T07:35:13.672Z,8.37
2019-02-14T07:36:18.641Z,8.35
2019-02-14T07:37:26.794Z,8.51
2019-02-14T07:38:30.323Z,8.39
2019-02-14T07:39:35.559Z,8.38
2019-02-14T07:40:40.521Z,8.88
2019-02-14T07:41:45.788Z,8.84
2019-02-14T07:42:51.073Z,9.04
2019-02-14T07:43:56.452Z,9.19
2019-02-14T07:45:01.466Z,9.07
2019-02-14T07:46:06.808Z,9.08
2019-02-14T07:47:11.767Z,9.52
2019-02-14T07:48:16.753Z,9.80
2019-02-14T07:49:21.437Z,9.47
2019-02-14T07:50:26.449Z,10.07
2019-02-14T07:51:31.693Z,9.97
2019-02-14T07:52:37.262Z,10.27
2019-02-14T07:53:42.259Z,10.05
2019-02-14T07:54:47.317Z,10.41
2019-02-14T07:55:52.602Z,10.27
2019-02-14T07:56:57.341Z,9.82
2019-02-14T07:58:02.618Z,10.37
2019-02-14T07:59:08.149Z,10.25
2019-02-14T08:00:13.709Z,10.03
2019-02-14T08:01:19.201Z,10.52
2019-02-14T08:02:23.923Z,10.36
2019-02-14T08:03:28.634Z,10.32
2019-02-14T08:04:33.335Z,10.62
2019-02-14T08:05:38.030Z,11.15
2019-02-14T08:06:43.287Z,11.33
2019-02-14T08:07:48.153Z,11.47
2019-02-14T08:08:53.236Z,11.91
2019-02-14T08:09:58.472Z,12.00
2019-02-14T08:11:03.796Z,12.09
2019-02-14T08:12:08.483Z,12.57
2019-02-14T08:13:13.206Z,13.58
2019-02-14T08:14:18.190Z,14.03
2019-02-14T08:15:23.463Z,13.82
2019-02-14T08:16:28.700Z,13.54
2019-02-14T08:17:33.776Z,12.12
2019-02-14T08:18:39.168Z,12.54
2019-02-14T08:19:44.753Z,12.81
2019-02-14T08:20:50.075Z,11.94
2019-02-14T08:21:55.320Z,12.49
2019-02-14T08:23:00.043Z,12.89
2019-02-14T08:24:05.306Z,12.51
2019-02-14T08:25:11.079Z,11.72
2019-02-14T08:26:16.061Z,12.17
2019-02-14T08:27:20.794Z,12.57
2019-02-14T08:28:26.039Z,12.84
2019-02-14T08:29:30.763Z,12.40
2019-02-14T08:30:36.063Z,12.30
2019-02-14T08:31:41.599Z,11.78
2019-02-14T08:32:47.099Z,12.44
2019-02-14T08:33:52.504Z,12.63
2019-02-14T08:34:58.041Z,13.06
2019-02-14T08:36:03.040Z,12.94
2019-02-14T08:37:07.738Z,13.58
2019-02-14T08:38:13.028Z,13.77
2019-02-14T08:39:18.259Z,13.71
2019-02-14T08:40:24.103Z,13.72
2019-02-14T08:41:28.796Z,13.61
2019-02-14T08:42:33.475Z,13.33
2019-02-14T08:43:38.179Z,12.90
2019-02-14T08:44:42.969Z,12.87
2019-02-14T08:45:47.948Z,13.00
2019-02-14T08:46:53.227Z,12.22
2019-02-14T08:47:57.906Z,12.92
2019-02-14T08:49:03.245Z,12.52
2019-02-14T08:50:08.149Z,13.07
2019-02-14T08:51:12.856Z,13.43
2019-02-14T08:52:17.872Z,13.50
2019-02-14T08:53:22.870Z,13.56
2019-02-14T08:54:27.847Z,13.51
2019-02-14T08:55:32.233Z,13.69
2019-02-14T08:56:37.503Z,13.64
2019-02-14T08:57:42.865Z,13.82
2019-02-14T08:58:47.636Z,12.76
2019-02-14T08:59:52.881Z,13.73
2019-02-14T09:00:57.588Z,14.55
2019-02-14T09:02:02.848Z,13.52
2019-02-14T09:03:07.864Z,14.10
2019-02-14T09:04:12.516Z,13.50
2019-02-14T09:05:17.786Z,14.56
2019-02-14T09:06:22.752Z,14.96
2019-02-14T09:07:28.023Z,14.63
2019-02-14T09:08:33.269Z,13.51
2019-02-14T09:09:38.592Z,14.71
2019-02-14T09:10:43.870Z,15.05
2019-02-14T09:11:48.915Z,15.21
2019-02-14T09:12:54.114Z,15.56
2019-02-14T09:13:59.113Z,15.00
2019-02-14T09:15:04.173Z,15.19
2019-02-14T09:16:09.177Z,15.40
2019-02-14T09:17:14.196Z,15.86
2019-02-14T09:18:18.865Z,15.57
2019-02-14T09:19:24.105Z,15.82
2019-02-14T09:20:28.771Z,15.98
2019-02-14T09:21:34.326Z,14.45
2019-02-14T09:22:39.340Z,15.02
2019-02-14T09:23:43.784Z,14.24
2019-02-14T09:24:48.624Z,13.97
2019-02-14T09:25:53.598Z,14.51
2019-02-14T09:26:58.549Z,14.62
2019-02-14T09:28:03.278Z,14.80
2019-02-14T09:29:08.539Z,13.51
2019-02-14T09:30:13.268Z,14.20
2019-02-14T09:31:19.527Z,13.67
2019-02-14T09:32:26.479Z,14.64
2019-02-14T09:33:32.017Z,13.95
2019-02-14T09:34:36.762Z,14.34
2019-02-14T09:35:44.070Z,14.43
2019-02-14T09:36:49.333Z,14.12
2019-02-14T09:38:02.751Z,14.72
2019-02-14T09:39:01.089Z,14.31
2019-02-14T09:40:07.306Z,15.47
2019-02-14T09:41:11.998Z,14.71
2019-02-14T09:42:16.984Z,14.49
2019-02-14T09:43:29.670Z,15.14
2019-02-14T09:44:28.692Z,15.12
2019-02-14T09:45:33.674Z,15.11
2019-02-14T09:46:39.188Z,15.55
2019-02-14T09:47:44.921Z,15.43
2019-02-14T09:48:49.950Z,15.52
2019-02-14T09:49:55.227Z,15.78
2019-02-14T09:51:00.188Z,15.95
2019-02-14T09:52:05.178Z,15.50
2019-02-14T09:53:10.437Z,15.37
2019-02-14T09:54:15.385Z,15.32
2019-02-14T09:55:20.991Z,16.05
2019-02-14T09:56:25.806Z,16.24
2019-02-14T09:57:30.495Z,16.09
2019-02-14T09:58:35.570Z,16.48
2019-02-14T09:59:40.513Z,17.06
2019-02-14T10:00:45.565Z,16.46
2019-02-14T10:01:50.480Z,16.95
2019-02-14T10:02:55.471Z,15.29
2019-02-14T10:04:00.753Z,15.70
2019-02-14T10:05:05.500Z,14.72
2019-02-14T10:06:10.208Z,15.48
2019-02-14T10:07:15.239Z,16.18
2019-02-14T10:08:20.004Z,16.73
2019-02-14T10:09:24.691Z,16.93
2019-02-14T10:10:29.505Z,16.78
2019-02-14T10:11:34.740Z,16.47
2019-02-14T10:12:39.718Z,16.78
2019-02-14T10:13:44.174Z,15.17
2019-02-14T10:14:49.523Z,15.80
2019-02-14T10:15:54.479Z,14.34
2019-02-14T10:16:59.733Z,15.13
2019-02-14T10:18:04.995Z,15.11
2019-02-14T10:19:10.054Z,14.48
2019-02-14T10:20:15.892Z,15.72
2019-02-14T10:21:21.464Z,15.48
2019-02-14T10:22:26.437Z,15.17
2019-02-14T10:23:31.414Z,15.27
2019-02-14T10:24:36.435Z,15.44
2019-02-14T10:25:41.985Z,15.64
2019-02-14T10:26:46.969Z,15.38
2019-02-14T10:27:52.047Z,15.09
2019-02-14T10:28:57.449Z,15.11
2019-02-14T10:30:03.001Z,14.85
2019-02-14T10:31:08.003Z,15.44
2019-02-14T10:32:12.448Z,15.86
2019-02-14T10:33:17.668Z,15.81
2019-02-14T10:34:23.182Z,15.34
2019-02-14T10:35:28.159Z,14.87
2019-02-14T10:36:33.410Z,15.77
2019-02-14T10:37:38.682Z,15.19
2019-02-14T10:38:43.714Z,15.51
2019-02-14T10:39:48.780Z,15.82
2019-02-14T10:40:53.778Z,16.36
2019-02-14T10:41:58.491Z,16.30
2019-02-14T10:43:03.745Z,16.78
2019-02-14T10:44:08.731Z,16.85
2019-02-14T10:45:15.615Z,17.01
2019-02-14T10:46:20.290Z,16.20
2019-02-14T10:47:25.275Z,16.66
2019-02-14T10:48:30.704Z,16.63
2019-02-14T10:49:35.653Z,16.70
2019-02-14T10:50:40.775Z,16.49
2019-02-14T10:51:45.206Z,16.51
2019-02-14T10:52:51.015Z,16.34
2019-02-14T10:53:56.563Z,16.28
2019-02-14T10:55:01.517Z,16.07
2019-02-14T10:56:07.227Z,15.97
2019-02-14T10:57:12.175Z,16.57
2019-02-14T10:58:16.641Z,16.48
2019-02-14T10:59:21.623Z,16.09
2019-02-14T11:00:26.669Z,15.48
2019-02-14T11:01:31.981Z,16.20
2019-02-14T11:02:36.735Z,16.54
2019-02-14T11:03:41.971Z,16.09
2019-02-14T11:04:47.268Z,16.62
2019-02-14T11:05:52.288Z,17.71
2019-02-14T11:06:57.541Z,18.34
2019-02-14T11:08:02.519Z,17.37
2019-02-14T11:09:08.274Z,18.83
2019-02-14T11:10:13.013Z,18.13
2019-02-14T11:11:18.423Z,18.13
2019-02-14T11:12:23.871Z,17.02
2019-02-14T11:13:29.213Z,18.25
2019-02-14T11:14:34.442Z,17.98
2019-02-14T11:15:39.717Z,18.47
2019-02-14T11:16:44.694Z,19.01
2019-02-14T11:17:49.854Z,18.00
2019-02-14T11:18:55.125Z,18.38
2019-02-14T11:19:59.801Z,19.03
2019-02-14T11:21:04.793Z,18.26
2019-02-14T11:22:10.314Z,18.93
2019-02-14T11:23:15.853Z,18.45
2019-02-14T11:24:21.525Z,18.71
2019-02-14T11:25:31.066Z,19.29
2019-02-14T11:26:35.787Z,18.96
2019-02-14T11:27:40.232Z,18.31
2019-02-14T11:28:45.227Z,17.75
2019-02-14T11:29:50.653Z,18.06
2019-02-14T11:30:55.866Z,17.82
2019-02-14T11:32:01.151Z,17.42
2019-02-14T11:33:06.125Z,17.95
2019-02-14T11:34:11.340Z,17.95
2019-02-14T11:35:16.625Z,17.02
2019-02-14T11:36:21.890Z,17.56
2019-02-14T11:37:26.623Z,18.34
2019-02-14T11:38:40.199Z,18.22
2019-02-14T11:39:39.110Z,18.19
2019-02-14T11:40:44.341Z,18.30
2019-02-14T11:41:52.147Z,18.72
2019-02-14T11:42:57.115Z,18.79
2019-02-14T11:44:02.905Z,18.75
2019-02-14T11:45:09.807Z,18.67
2019-02-14T11:46:14.784Z,17.97
2019-02-14T11:47:19.732Z,18.19
2019-02-14T11:48:24.747Z,18.63
2019-02-14T11:49:29.435Z,18.46
2019-02-14T11:50:34.454Z,18.13
2019-02-14T11:51:38.938Z,18.21
2019-02-14T11:52:44.158Z,18.00
2019-02-14T11:53:49.187Z,18.43
2019-02-14T11:54:54.169Z,18.74
2019-02-14T11:55:58.910Z,19.06
2019-02-14T11:57:03.904Z,18.37
2019-02-14T11:58:09.438Z,17.74
2019-02-14T11:59:14.770Z,18.86
2019-02-14T12:00:22.178Z,18.80
2019-02-14T12:01:27.427Z,18.31
2019-02-14T12:02:32.703Z,17.84
2019-02-14T12:03:38.247Z,17.18
2019-02-14T12:04:43.549Z,18.19
2019-02-14T12:05:50.753Z,18.80
2019-02-14T12:06:55.776Z,18.27
2019-02-14T12:08:01.009Z,18.21
2019-02-14T12:09:07.153Z,18.24
2019-02-14T12:10:13.825Z,18.28
2019-02-14T12:11:18.930Z,18.48
2019-02-14T12:12:25.789Z,18.45
2019-02-14T12:13:30.334Z,18.41
2019-02-14T12:14:35.096Z,18.12
2019-02-14T12:15:40.062Z,18.98
2019-02-14T12:16:44.822Z,18.83
2019-02-14T12:17:50.235Z,18.30
2019-02-14T12:18:55.501Z,18.78
2019-02-14T12:20:00.377Z,18.21
2019-02-14T12:21:05.379Z,18.13
2019-02-14T12:22:10.164Z,18.34
2019-02-14T12:23:15.465Z,18.52
2019-02-14T12:24:20.131Z,18.88
2019-02-14T12:25:24.639Z,18.52
2019-02-14T12:26:29.323Z,18.95
2019-02-14T12:27:34.297Z,18.92
2019-02-14T12:28:39.543Z,19.43
2019-02-14T12:29:44.247Z,19.43
2019-02-14T12:30:52.294Z,19.01
2019-02-14T12:31:57.716Z,19.15
2019-02-14T12:33:02.406Z,19.23
2019-02-14T12:34:08.079Z,18.73
2019-02-14T12:35:12.772Z,18.78
2019-02-14T12:36:18.067Z,18.58
2019-02-14T12:37:22.788Z,19.25
2019-02-14T12:38:27.744Z,19.35
2019-02-14T12:39:33.026Z,18.90
2019-02-14T12:40:38.574Z,18.90
2019-02-14T12:41:44.077Z,18.87
2019-02-14T12:42:48.882Z,18.90
2019-02-14T12:43:54.849Z,19.47
2019-02-14T12:45:00.416Z,18.83
2019-02-14T12:46:05.399Z,19.23
2019-02-14T12:47:10.420Z,19.08
2019-02-14T12:48:15.378Z,18.79
2019-02-14T12:49:20.725Z,18.83
2019-02-14T12:50:25.762Z,17.84
2019-02-14T12:51:30.771Z,18.92
2019-02-14T12:52:35.758Z,18.53
2019-02-14T12:53:41.049Z,18.60
2019-02-14T12:54:46.096Z,18.71
2019-02-14T12:55:51.707Z,18.47
2019-02-14T12:56:57.015Z,18.44
2019-02-14T12:58:02.407Z,18.02
2019-02-14T12:59:07.933Z,18.79
2019-02-14T13:00:16.142Z,18.99
2019-02-14T13:01:21.997Z,19.25
2019-02-14T13:02:27.196Z,18.63
2019-02-14T13:03:32.167Z,19.25
2019-02-14T13:04:37.410Z,18.90
2019-02-14T13:05:42.396Z,18.60
2019-02-14T13:06:47.386Z,18.72
2019-02-14T13:07:52.620Z,18.12
2019-02-14T13:08:57.859Z,18.80
2019-02-14T13:10:03.382Z,19.02
2019-02-14T13:11:08.407Z,18.56
2019-02-14T13:12:13.101Z,19.02
2019-02-14T13:13:17.825Z,19.43
2019-02-14T13:14:23.342Z,18.94
2019-02-14T13:15:28.313Z,19.23
2019-02-14T13:16:33.281Z,19.19
2019-02-14T13:17:38.289Z,18.88
2019-02-14T13:18:43.249Z,19.19
2019-02-14T13:19:50.198Z,19.03
2019-02-14T13:20:56.961Z,19.50
2019-02-14T13:22:02.237Z,19.18
2019-02-14T13:23:07.222Z,19.36
2019-02-14T13:24:11.985Z,19.61
2019-02-14T13:25:17.344Z,19.79
2019-02-14T13:26:22.592Z,19.33
2019-02-14T13:27:27.524Z,19.78
2019-02-14T13:28:32.524Z,19.70
2019-02-14T13:29:37.456Z,19.91
2019-02-14T13:30:42.559Z,20.08
2019-02-14T13:31:48.088Z,19.37
2019-02-14T13:32:52.845Z,18.40
2019-02-14T13:33:58.872Z,18.82
2019-02-14T13:35:04.041Z,19.18
2019-02-14T13:36:09.528Z,18.41
2019-02-14T13:37:14.253Z,19.23
2019-02-14T13:38:20.863Z,19.27
2019-02-14T13:39:29.708Z,19.60
2019-02-14T13:40:33.090Z,19.43
2019-02-14T13:41:40.311Z,18.81
2019-02-14T13:42:45.191Z,18.70
2019-02-14T13:43:50.393Z,18.80
2019-02-14T13:44:55.637Z,19.27
2019-02-14T13:46:00.683Z,19.25
2019-02-14T13:47:09.549Z,18.23
2019-02-14T13:48:14.742Z,19.15
2019-02-14T13:49:19.961Z,19.05
2019-02-14T13:50:25.236Z,19.33
2019-02-14T13:51:30.495Z,19.41
2019-02-14T13:52:36.246Z,19.31
2019-02-14T13:53:41.350Z,19.46
2019-02-14T13:54:46.481Z,19.06
2019-02-14T13:55:51.423Z,19.48
2019-02-14T13:56:56.159Z,19.68
2019-02-14T13:58:00.891Z,19.80
2019-02-14T13:59:06.114Z,20.04
2019-02-14T14:00:17.546Z,20.06
2019-02-14T14:01:23.615Z,20.13
2019-02-14T14:02:28.577Z,19.59
2019-02-14T14:03:33.826Z,20.24
2019-02-14T14:04:39.103Z,19.85
2019-02-14T14:05:44.102Z,19.99
2019-02-14T14:06:49.537Z,20.13
2019-02-14T14:07:54.493Z,20.23
2019-02-14T14:08:59.442Z,20.48
2019-02-14T14:10:04.184Z,20.57
2019-02-14T14:11:09.135Z,20.84
2019-02-14T14:12:14.393Z,20.30